Chula, Missouri
Current Conditions -  °F | °C
As of 10:55 AM on Friday 28 Nov 2014 (Local Time) from KIRK Reporting Station
Clear Clear  
Wind Chill: 33°   Ceiling: Unl
Heat Index: 41°   Visibility: 10mi
Dew Point: 29°   Wind: 14mph
Humidity: 62%   Direction: 200°SSW
Pressure: 29.95"   Gusts: NA
Location:  39.92°N, 93.47°W
Report Text: KIRK 281655Z AUTO 20012KT 10SM CLR 05/M02 A2995 RMK AO2 PRESFR SLP156 T00501017
Loading
Personal Weather Stations






























Interactive Weather Map New forecast layout! Learn more

10-Day Weather Forecast

Advertisements
Track Severe Weather on mobile